createdAt,value
2018-08-06T00:01:25.423Z,18.54
2018-08-06T00:03:54.432Z,18.38
2018-08-06T00:06:22.066Z,18.22
2018-08-06T00:08:49.903Z,18.12
2018-08-06T00:11:18.062Z,18.08
2018-08-06T00:13:45.667Z,18.04
2018-08-06T00:16:13.274Z,18.01
2018-08-06T00:18:42.191Z,18.00
2018-08-06T00:21:09.759Z,18.00
2018-08-06T00:23:37.400Z,18.03
2018-08-06T00:26:05.377Z,18.04
2018-08-06T00:28:33.015Z,18.05
2018-08-06T00:31:00.625Z,18.08
2018-08-06T00:33:28.279Z,18.08
2018-08-06T00:35:56.101Z,18.05
2018-08-06T00:38:23.742Z,18.03
2018-08-06T00:40:52.019Z,18.00
2018-08-06T00:43:19.858Z,17.96
2018-08-06T00:45:47.430Z,17.92
2018-08-06T00:48:15.043Z,17.88
2018-08-06T00:50:42.578Z,17.82
2018-08-06T00:53:10.420Z,17.78
2018-08-06T00:55:38.075Z,17.73
2018-08-06T00:58:05.702Z,17.70
2018-08-06T01:00:33.260Z,17.70
2018-08-06T01:03:01.952Z,17.71
2018-08-06T01:05:29.621Z,17.71
2018-08-06T01:07:57.247Z,17.71
2018-08-06T01:10:24.877Z,17.70
2018-08-06T01:12:52.794Z,17.71
2018-08-06T01:15:21.698Z,17.69
2018-08-06T01:17:49.326Z,17.67
2018-08-06T01:20:16.967Z,17.61
2018-08-06T01:22:45.539Z,17.57
2018-08-06T01:25:13.594Z,17.50
2018-08-06T01:27:41.182Z,17.46
2018-08-06T01:30:08.750Z,17.43
2018-08-06T01:32:37.004Z,17.37
2018-08-06T01:35:04.566Z,17.29
2018-08-06T01:37:32.174Z,17.20
2018-08-06T01:39:59.799Z,17.10
2018-08-06T01:42:27.678Z,16.99
2018-08-06T01:44:55.311Z,16.88
2018-08-06T01:47:23.755Z,16.77
2018-08-06T01:49:51.693Z,16.70
2018-08-06T01:52:19.214Z,16.64
2018-08-06T01:54:46.859Z,16.57
2018-08-06T01:57:14.666Z,16.48
2018-08-06T01:59:42.307Z,16.39
2018-08-06T02:02:09.999Z,16.31
2018-08-06T02:04:37.654Z,16.26
2018-08-06T02:07:05.499Z,16.26
2018-08-06T02:09:33.076Z,16.25
2018-08-06T02:12:00.641Z,16.27
2018-08-06T02:14:28.231Z,16.27
2018-08-06T02:16:56.271Z,16.28
2018-08-06T02:19:23.956Z,16.28
2018-08-06T02:21:51.619Z,16.27
2018-08-06T02:24:19.249Z,16.25
2018-08-06T02:26:47.207Z,16.23
2018-08-06T02:29:15.820Z,16.23
2018-08-06T02:31:43.460Z,16.20
2018-08-06T02:34:11.277Z,16.19
2018-08-06T02:36:38.855Z,16.18
2018-08-06T02:39:06.423Z,16.16
2018-08-06T02:41:34.079Z,16.16
2018-08-06T02:44:01.930Z,16.13
2018-08-06T02:46:29.579Z,16.12
2018-08-06T02:48:57.167Z,16.09
2018-08-06T02:51:24.803Z,16.08
2018-08-06T02:53:52.716Z,16.08
2018-08-06T02:56:20.266Z,16.08
2018-08-06T02:58:47.806Z,16.08
2018-08-06T03:01:15.344Z,16.08
2018-08-06T03:03:43.277Z,16.10
2018-08-06T03:06:10.833Z,16.10
2018-08-06T03:08:38.418Z,16.10
2018-08-06T03:11:06.236Z,16.10
2018-08-06T03:13:33.859Z,16.11
2018-08-06T03:16:01.447Z,16.10
2018-08-06T03:18:29.052Z,16.10
2018-08-06T03:20:56.602Z,16.08
2018-08-06T03:23:24.205Z,16.05
2018-08-06T03:25:52.166Z,16.01
2018-08-06T03:28:19.794Z,15.95
2018-08-06T03:30:48.116Z,15.91
2018-08-06T03:33:16.295Z,15.87
2018-08-06T03:35:44.193Z,15.80
2018-08-06T03:38:11.759Z,15.74
2018-08-06T03:40:39.369Z,15.70
2018-08-06T03:43:06.887Z,15.66
2018-08-06T03:45:34.873Z,15.60
2018-08-06T03:48:02.448Z,15.56
2018-08-06T03:50:30.092Z,15.52
2018-08-06T03:52:57.672Z,15.51
2018-08-06T03:55:25.658Z,15.47
2018-08-06T03:57:53.180Z,15.48
2018-08-06T04:00:20.807Z,15.44
2018-08-06T04:02:48.427Z,15.44
2018-08-06T04:05:16.833Z,15.43
2018-08-06T04:07:44.520Z,15.42
2018-08-06T04:10:12.388Z,15.42
2018-08-06T04:12:40.293Z,15.41
2018-08-06T04:15:08.590Z,15.42
2018-08-06T04:17:36.166Z,15.44
2018-08-06T04:20:05.072Z,15.47
2018-08-06T04:22:32.708Z,15.50
2018-08-06T04:25:00.291Z,15.52
2018-08-06T04:27:27.876Z,15.53
2018-08-06T04:29:55.779Z,15.53
2018-08-06T04:32:23.393Z,15.50
2018-08-06T04:34:50.923Z,15.50
2018-08-06T04:37:18.807Z,15.51
2018-08-06T04:39:46.426Z,15.54
2018-08-06T04:42:14.037Z,15.58
2018-08-06T04:44:41.656Z,15.64
2018-08-06T04:47:09.650Z,15.72
2018-08-06T04:49:37.283Z,15.81
2018-08-06T04:52:04.883Z,15.90
2018-08-06T04:54:32.743Z,16.02
2018-08-06T04:57:00.360Z,16.12
2018-08-06T05:02:11.278Z,16.39
2018-08-06T05:04:39.498Z,16.55
2018-08-06T05:07:08.507Z,16.69
2018-08-06T05:09:37.265Z,16.84
2018-08-06T05:12:04.933Z,16.95
2018-08-06T05:14:32.458Z,17.04
2018-08-06T05:17:00.929Z,17.18
2018-08-06T05:19:28.506Z,17.24
2018-08-06T05:21:56.100Z,17.32
2018-08-06T05:24:23.963Z,17.42
2018-08-06T05:26:51.575Z,17.52
2018-08-06T05:29:19.186Z,17.62
2018-08-06T05:31:47.494Z,17.74
2018-08-06T05:34:15.132Z,17.89
2018-08-06T05:36:42.763Z,18.07
2018-08-06T05:39:10.688Z,18.24
2018-08-06T05:41:38.310Z,18.37
2018-08-06T05:44:08.823Z,18.51
2018-08-06T05:46:36.714Z,18.66
2018-08-06T05:49:04.278Z,18.79
2018-08-06T05:51:31.886Z,18.93
2018-08-06T05:53:59.792Z,19.04
2018-08-06T05:56:27.379Z,19.21
2018-08-06T05:58:54.942Z,19.41
2018-08-06T06:01:23.308Z,19.54
2018-08-06T06:03:50.918Z,19.68
2018-08-06T06:06:18.510Z,19.80
2018-08-06T06:08:46.355Z,19.91
2018-08-06T06:11:14.001Z,20.05
2018-08-06T06:13:41.595Z,20.25
2018-08-06T06:16:09.634Z,20.45
2018-08-06T06:18:38.152Z,20.58
2018-08-06T06:21:05.721Z,20.73
2018-08-06T06:23:33.526Z,20.89
2018-08-06T06:26:01.684Z,21.01
2018-08-06T06:28:31.607Z,21.13
2018-08-06T06:30:59.608Z,21.28
2018-08-06T06:33:27.255Z,21.42
2018-08-06T06:35:55.574Z,21.55
2018-08-06T06:38:23.415Z,21.64
2018-08-06T06:40:51.034Z,21.75
2018-08-06T06:43:18.594Z,21.86
2018-08-06T06:45:46.419Z,22.01
2018-08-06T06:48:14.765Z,22.20
2018-08-06T06:50:42.350Z,22.35
2018-08-06T06:53:10.206Z,22.51
2018-08-06T06:55:38.818Z,22.69
2018-08-06T06:58:06.605Z,22.80
2018-08-06T07:00:34.509Z,22.94
2018-08-06T07:03:02.153Z,23.10
2018-08-06T07:05:29.810Z,23.23
2018-08-06T07:07:57.626Z,23.38
2018-08-06T07:10:25.243Z,23.57
2018-08-06T07:12:53.392Z,23.79
2018-08-06T07:15:22.147Z,24.01
2018-08-06T07:17:50.632Z,24.19
2018-08-06T07:20:18.471Z,24.37
2018-08-06T07:22:46.327Z,24.51
2018-08-06T07:25:13.981Z,24.66
2018-08-06T07:27:42.703Z,24.83
2018-08-06T07:30:11.506Z,24.97
2018-08-06T07:32:39.476Z,25.12
2018-08-06T07:35:07.326Z,25.23
2018-08-06T07:37:35.235Z,25.35
2018-08-06T07:40:02.842Z,25.47
2018-08-06T07:42:30.497Z,25.58
2018-08-06T07:44:58.356Z,25.70
2018-08-06T07:47:25.928Z,25.82
2018-08-06T07:49:53.640Z,25.95
2018-08-06T07:52:21.622Z,26.09
2018-08-06T07:54:49.266Z,26.20
2018-08-06T07:57:16.928Z,26.32
2018-08-06T07:59:44.876Z,26.39
2018-08-06T08:02:12.558Z,26.44
2018-08-06T08:04:40.186Z,26.49
2018-08-06T08:07:08.427Z,26.58
2018-08-06T08:09:36.720Z,26.72
2018-08-06T08:12:04.281Z,26.85
2018-08-06T08:14:32.110Z,26.98
2018-08-06T08:16:59.659Z,27.10
2018-08-06T08:19:27.653Z,27.23
2018-08-06T08:21:55.510Z,27.33
2018-08-06T08:24:23.150Z,27.43
2018-08-06T08:26:51.298Z,27.48
2018-08-06T08:29:19.956Z,27.54
2018-08-06T08:31:48.197Z,27.66
2018-08-06T08:34:15.836Z,27.81
2018-08-06T08:36:43.730Z,27.98
2018-08-06T08:39:12.511Z,28.14
2018-08-06T08:41:40.044Z,28.21
2018-08-06T08:44:08.940Z,28.25
2018-08-06T08:46:36.564Z,28.31
2018-08-06T08:49:06.061Z,28.40
2018-08-06T08:51:33.918Z,28.52
2018-08-06T08:54:02.522Z,28.62
2018-08-06T08:56:30.065Z,28.67
2018-08-06T08:58:58.642Z,28.73
2018-08-06T09:01:26.323Z,28.84
2018-08-06T09:03:54.027Z,28.96
2018-08-06T09:06:21.874Z,29.04
2018-08-06T09:08:49.461Z,29.13
2018-08-06T09:11:17.187Z,29.22
2018-08-06T09:13:45.311Z,29.35
2018-08-06T09:16:13.511Z,29.50
2018-08-06T09:18:41.107Z,29.66
2018-08-06T09:21:08.696Z,29.80
2018-08-06T09:23:36.600Z,29.91
2018-08-06T09:26:04.486Z,29.97
2018-08-06T09:28:32.011Z,30.00
2018-08-06T09:30:59.621Z,30.06
2018-08-06T09:33:27.446Z,30.20
2018-08-06T09:35:55.100Z,30.31
2018-08-06T09:38:22.703Z,30.46
2018-08-06T09:40:50.613Z,30.64
2018-08-06T09:43:18.446Z,30.83
2018-08-06T09:45:46.076Z,31.08
2018-08-06T09:48:13.927Z,31.27
2018-08-06T09:50:41.475Z,31.59
2018-08-06T09:53:09.901Z,31.95
2018-08-06T09:55:38.540Z,32.42
2018-08-06T09:58:06.959Z,32.66
2018-08-06T10:00:40.639Z,32.67
2018-08-06T10:03:08.550Z,32.71
2018-08-06T10:05:36.084Z,32.98
2018-08-06T10:08:03.767Z,33.41
2018-08-06T10:10:33.022Z,33.87
2018-08-06T10:13:00.643Z,34.33
2018-08-06T10:15:28.240Z,34.89
2018-08-06T10:17:56.579Z,35.39
2018-08-06T10:20:25.371Z,35.87
2018-08-06T10:22:54.050Z,36.36
2018-08-06T10:25:22.342Z,36.73
2018-08-06T10:27:50.014Z,37.01
2018-08-06T10:30:21.821Z,37.25
2018-08-06T10:32:51.188Z,37.37
2018-08-06T10:35:20.726Z,37.30
2018-08-06T10:37:49.588Z,37.23
2018-08-06T10:40:21.669Z,37.44
2018-08-06T10:42:50.452Z,37.72
2018-08-06T10:45:20.237Z,38.05
2018-08-06T10:47:50.631Z,38.45
2018-08-06T10:50:20.807Z,38.83
2018-08-06T10:52:48.404Z,39.17
2018-08-06T10:55:16.278Z,39.40
2018-08-06T10:57:44.051Z,39.65
2018-08-06T11:00:12.767Z,39.80
2018-08-06T11:02:40.668Z,40.06
2018-08-06T11:05:10.037Z,40.19
2018-08-06T11:07:37.792Z,40.14
2018-08-06T11:10:11.941Z,40.18
2018-08-06T11:12:39.958Z,40.43
2018-08-06T11:15:08.238Z,40.68
2018-08-06T11:17:36.294Z,40.72
2018-08-06T11:20:03.886Z,40.83
2018-08-06T11:22:31.548Z,41.10
2018-08-06T11:24:59.330Z,40.89
2018-08-06T11:27:27.675Z,40.89
2018-08-06T11:29:56.204Z,41.18
2018-08-06T11:32:24.679Z,41.36
2018-08-06T11:34:52.295Z,41.62
2018-08-06T11:37:19.879Z,41.95
2018-08-06T11:39:48.354Z,42.11
2018-08-06T11:42:16.788Z,42.41
2018-08-06T11:44:44.433Z,42.78
2018-08-06T11:47:12.323Z,43.01
2018-08-06T11:49:40.497Z,42.99
2018-08-06T11:52:10.519Z,42.74
2018-08-06T11:54:39.599Z,42.47
2018-08-06T11:57:07.171Z,42.46
2018-08-06T11:59:36.439Z,42.61
2018-08-06T12:02:05.806Z,42.13
2018-08-06T12:04:33.601Z,42.08
2018-08-06T12:07:03.331Z,42.29
2018-08-06T12:09:31.500Z,42.53
2018-08-06T12:12:01.315Z,42.87
2018-08-06T12:14:28.896Z,43.17
2018-08-06T12:16:57.651Z,43.55
2018-08-06T12:19:26.259Z,43.68
2018-08-06T12:21:55.687Z,43.71
2018-08-06T12:24:23.554Z,43.55
2018-08-06T12:26:52.642Z,43.44
2018-08-06T12:29:21.237Z,43.50
2018-08-06T12:31:50.223Z,43.73
2018-08-06T12:34:17.778Z,44.19
2018-08-06T12:36:46.514Z,44.43
2018-08-06T12:39:15.320Z,44.33
2018-08-06T12:41:43.568Z,44.27
2018-08-06T12:44:13.017Z,44.20
2018-08-06T12:46:41.346Z,43.94
2018-08-06T12:49:09.455Z,43.85
2018-08-06T12:51:37.764Z,43.55
2018-08-06T12:54:06.632Z,43.43
2018-08-06T12:56:34.546Z,43.37
2018-08-06T12:59:03.421Z,43.55
2018-08-06T13:01:32.435Z,43.78
2018-08-06T13:04:00.231Z,43.89
2018-08-06T13:06:28.423Z,44.12
2018-08-06T13:08:56.552Z,44.33
2018-08-06T13:11:24.813Z,44.60
2018-08-06T13:13:52.523Z,44.84
2018-08-06T13:16:21.311Z,45.11
2018-08-06T13:18:49.746Z,45.23
2018-08-06T13:21:18.209Z,45.27
2018-08-06T13:23:48.124Z,45.11
2018-08-06T13:26:16.691Z,45.04
2018-08-06T13:28:44.847Z,45.34
2018-08-06T13:31:12.771Z,45.64
2018-08-06T13:33:40.365Z,45.87
2018-08-06T13:36:08.513Z,46.26
2018-08-06T13:38:36.379Z,46.62
2018-08-06T13:41:04.622Z,46.47
2018-08-06T13:43:33.210Z,46.28
2018-08-06T13:46:01.108Z,45.89
2018-08-06T13:48:29.648Z,45.82
2018-08-06T13:50:59.306Z,46.10
2018-08-06T13:53:27.321Z,46.33
2018-08-06T13:55:54.874Z,46.54
2018-08-06T13:58:22.483Z,46.53
2018-08-06T14:00:50.404Z,46.51
2018-08-06T14:03:18.027Z,46.70
2018-08-06T14:05:45.580Z,46.91
2018-08-06T14:08:13.412Z,47.14
2018-08-06T14:10:40.989Z,47.38
2018-08-06T14:13:08.607Z,47.57
2018-08-06T14:15:36.676Z,47.61
2018-08-06T14:18:06.314Z,47.55
2018-08-06T14:20:35.324Z,47.56
2018-08-06T14:23:03.392Z,47.44
2018-08-06T14:25:31.683Z,47.24
2018-08-06T14:27:59.559Z,47.07
2018-08-06T14:30:27.366Z,46.84
2018-08-06T14:32:54.886Z,46.78
2018-08-06T14:35:22.531Z,46.77
2018-08-06T14:37:52.042Z,46.91
2018-08-06T14:40:20.237Z,46.98
2018-08-06T14:42:48.102Z,46.99
2018-08-06T14:45:16.528Z,46.82
2018-08-06T14:47:44.178Z,46.64
2018-08-06T14:50:13.304Z,46.41
2018-08-06T14:52:40.879Z,46.35
2018-08-06T14:55:08.540Z,46.15
2018-08-06T14:57:38.170Z,45.80
2018-08-06T15:00:05.742Z,45.92
2018-08-06T15:02:33.358Z,45.98
2018-08-06T15:05:01.261Z,45.98
2018-08-06T15:07:28.886Z,46.02
2018-08-06T15:09:56.535Z,46.22
2018-08-06T15:12:24.753Z,46.31
2018-08-06T15:14:52.342Z,46.51
2018-08-06T15:17:19.968Z,46.68
2018-08-06T15:19:50.107Z,46.83
2018-08-06T15:22:17.727Z,47.17
2018-08-06T15:24:45.250Z,47.28
2018-08-06T15:27:13.862Z,47.16
2018-08-06T15:29:41.453Z,46.86
2018-08-06T15:32:10.432Z,46.40
2018-08-06T15:34:39.582Z,46.12
2018-08-06T15:37:07.343Z,45.97
2018-08-06T15:39:35.695Z,45.83
2018-08-06T15:42:04.110Z,45.52
2018-08-06T15:44:31.974Z,45.20
2018-08-06T15:46:59.610Z,44.99
2018-08-06T15:49:29.279Z,44.99
2018-08-06T15:51:58.502Z,45.10
2018-08-06T15:54:28.727Z,45.31
2018-08-06T15:57:02.447Z,45.53
2018-08-06T15:59:31.631Z,45.60
2018-08-06T16:01:59.154Z,45.70
2018-08-06T16:04:27.918Z,45.71
2018-08-06T16:06:56.614Z,45.63
2018-08-06T16:09:25.273Z,45.41
2018-08-06T16:11:53.158Z,45.36
2018-08-06T16:14:20.758Z,45.30
2018-08-06T16:16:48.370Z,44.96
2018-08-06T16:19:16.239Z,44.72
2018-08-06T16:21:46.666Z,44.61
2018-08-06T16:24:14.218Z,44.55
2018-08-06T16:26:42.082Z,44.58
2018-08-06T16:29:10.638Z,44.27
2018-08-06T16:31:38.204Z,43.83
2018-08-06T16:34:06.047Z,43.32
2018-08-06T16:36:33.611Z,42.91
2018-08-06T16:39:01.369Z,42.50
2018-08-06T16:41:30.094Z,41.57
2018-08-06T16:43:57.728Z,40.45
2018-08-06T16:46:25.675Z,39.50
2018-08-06T16:48:53.564Z,38.64
2018-08-06T16:51:21.376Z,37.91
2018-08-06T16:53:49.739Z,37.28
2018-08-06T16:56:17.713Z,36.78
2018-08-06T16:58:45.242Z,36.35
2018-08-06T17:01:12.852Z,35.95
2018-08-06T17:03:41.427Z,35.60
2018-08-06T17:06:08.982Z,35.32
2018-08-06T17:08:37.433Z,35.09
2018-08-06T17:11:06.776Z,34.84
2018-08-06T17:13:38.119Z,34.60
2018-08-06T17:16:05.643Z,34.40
2018-08-06T17:18:33.527Z,34.22
2018-08-06T17:21:01.048Z,34.08
2018-08-06T17:23:29.611Z,33.96
2018-08-06T17:25:57.492Z,33.84
2018-08-06T17:28:26.688Z,33.72
2018-08-06T17:30:54.214Z,33.58
2018-08-06T17:33:23.694Z,33.47
2018-08-06T17:35:53.623Z,33.41
2018-08-06T17:38:22.158Z,33.35
2018-08-06T17:40:50.749Z,33.28
2018-08-06T17:43:18.395Z,33.21
2018-08-06T17:45:46.056Z,33.16
2018-08-06T17:48:13.959Z,33.10
2018-08-06T17:50:42.067Z,33.04
2018-08-06T17:53:10.571Z,32.99
2018-08-06T17:55:40.608Z,32.87
2018-08-06T17:58:08.518Z,32.79
2018-08-06T18:00:36.677Z,32.71
2018-08-06T18:03:05.462Z,32.61
2018-08-06T18:05:34.252Z,32.49
2018-08-06T18:08:03.123Z,32.39
2018-08-06T18:10:31.738Z,32.29
2018-08-06T18:12:59.375Z,32.17
2018-08-06T18:15:27.959Z,32.06
2018-08-06T18:17:59.508Z,31.95
2018-08-06T18:20:27.127Z,31.86
2018-08-06T18:22:57.154Z,31.76
2018-08-06T18:25:25.255Z,31.66
2018-08-06T18:27:53.475Z,31.54
2018-08-06T18:30:21.450Z,31.44
2018-08-06T18:32:49.268Z,31.33
2018-08-06T18:35:17.826Z,31.22
2018-08-06T18:37:45.438Z,31.11
2018-08-06T18:40:14.135Z,30.99
2018-08-06T18:42:41.767Z,30.86
2018-08-06T18:45:10.901Z,30.72
2018-08-06T18:47:42.486Z,30.59
2018-08-06T18:50:11.206Z,30.46
2018-08-06T18:52:40.479Z,30.31
2018-08-06T18:55:10.690Z,30.18
2018-08-06T18:57:38.526Z,30.05
2018-08-06T19:00:07.926Z,29.90
2018-08-06T19:02:39.764Z,29.75
2018-08-06T19:05:08.200Z,29.60
2018-08-06T19:07:36.419Z,29.47
2018-08-06T19:10:05.321Z,29.33
2018-08-06T19:12:39.338Z,29.20
2018-08-06T19:15:07.562Z,29.06
2018-08-06T19:17:39.465Z,28.93
2018-08-06T19:20:07.552Z,28.79
2018-08-06T19:22:36.089Z,28.64
2018-08-06T19:25:09.275Z,28.48
2018-08-06T19:27:38.072Z,28.31
2018-08-06T19:30:08.665Z,28.15
2018-08-06T19:32:36.536Z,27.98
2018-08-06T19:35:04.075Z,27.83
2018-08-06T19:37:36.787Z,27.71
2018-08-06T19:40:06.436Z,27.58
2018-08-06T19:42:38.981Z,27.47
2018-08-06T19:45:06.559Z,27.36
2018-08-06T19:47:35.687Z,27.28
2018-08-06T19:50:08.271Z,27.20
2018-08-06T19:52:35.910Z,27.13
2018-08-06T19:55:09.455Z,27.07
2018-08-06T19:57:36.997Z,27.01
2018-08-06T20:00:04.855Z,26.95
2018-08-06T20:02:33.367Z,26.88
2018-08-06T20:05:02.606Z,26.81
2018-08-06T20:07:31.416Z,26.70
2018-08-06T20:09:58.969Z,26.57
2018-08-06T20:12:26.547Z,26.41
2018-08-06T20:14:54.468Z,26.27
2018-08-06T20:17:22.087Z,26.16
2018-08-06T20:19:49.878Z,26.09
2018-08-06T20:24:52.609Z,25.95
2018-08-06T20:27:21.304Z,25.88
2018-08-06T20:29:49.279Z,25.83
2018-08-06T20:32:16.917Z,25.77
2018-08-06T20:34:44.510Z,25.69
2018-08-06T20:37:12.344Z,25.62
2018-08-06T20:39:41.402Z,25.54
2018-08-06T20:42:09.047Z,25.50
2018-08-06T20:44:37.022Z,25.46
2018-08-06T20:47:04.588Z,25.43
2018-08-06T20:49:32.206Z,25.41
2018-08-06T20:52:00.778Z,25.41
2018-08-06T20:54:29.235Z,25.31
2018-08-06T20:56:56.900Z,25.10
2018-08-06T20:59:28.394Z,24.87
2018-08-06T21:01:55.991Z,24.69
2018-08-06T21:04:23.675Z,24.53
2018-08-06T21:06:51.539Z,24.39
2018-08-06T21:09:19.059Z,24.21
2018-08-06T21:11:46.591Z,24.12
2018-08-06T21:14:14.567Z,24.07
2018-08-06T21:16:43.566Z,24.01
2018-08-06T21:19:11.287Z,24.00
2018-08-06T21:21:40.586Z,23.99
2018-08-06T21:24:09.723Z,24.00
2018-08-06T21:26:38.729Z,23.96
2018-08-06T21:29:06.603Z,23.84
2018-08-06T21:31:35.203Z,23.72
2018-08-06T21:34:02.729Z,23.63
2018-08-06T21:36:30.555Z,23.54
2018-08-06T21:38:58.170Z,23.45
2018-08-06T21:41:25.750Z,23.34
2018-08-06T21:43:54.898Z,23.27
2018-08-06T21:46:22.539Z,23.24
2018-08-06T21:48:50.101Z,23.22
2018-08-06T21:51:18.158Z,23.19
2018-08-06T21:53:45.746Z,23.19
2018-08-06T21:56:14.156Z,23.16
2018-08-06T21:58:43.651Z,23.14
2018-08-06T22:01:11.284Z,23.12
2018-08-06T22:03:38.805Z,23.10
2018-08-06T22:06:07.656Z,23.09
2018-08-06T22:08:35.221Z,23.09
2018-08-06T22:11:02.868Z,23.06
2018-08-06T22:13:30.750Z,23.05
2018-08-06T22:15:58.306Z,23.01
2018-08-06T22:18:25.873Z,23.00
2018-08-06T22:20:53.422Z,22.97
2018-08-06T22:23:21.439Z,22.92
2018-08-06T22:25:50.696Z,22.85
2018-08-06T22:28:18.352Z,22.78
2018-08-06T22:30:45.946Z,22.71
2018-08-06T22:33:13.814Z,22.66
2018-08-06T22:35:41.867Z,22.61
2018-08-06T22:38:09.500Z,22.57
2018-08-06T22:40:37.204Z,22.53
2018-08-06T22:43:05.840Z,22.46
2018-08-06T22:45:33.366Z,22.38
2018-08-06T22:48:01.676Z,22.28
2018-08-06T22:50:29.260Z,22.21
2018-08-06T22:52:57.328Z,22.16
2018-08-06T22:55:26.206Z,22.13
2018-08-06T22:57:53.768Z,22.09
2018-08-06T23:00:21.428Z,22.06
2018-08-06T23:02:49.307Z,22.05
2018-08-06T23:05:18.023Z,22.11
2018-08-06T23:07:45.650Z,22.12
2018-08-06T23:10:13.502Z,22.13
2018-08-06T23:12:41.389Z,22.10
2018-08-06T23:15:09.057Z,22.05
2018-08-06T23:17:36.690Z,22.00
2018-08-06T23:20:05.995Z,21.96
2018-08-06T23:22:35.102Z,21.93
2018-08-06T23:25:03.411Z,21.90
2018-08-06T23:27:31.039Z,21.91
2018-08-06T23:29:58.687Z,21.89
2018-08-06T23:32:26.629Z,21.87
2018-08-06T23:34:54.275Z,21.84
2018-08-06T23:37:21.868Z,21.79
2018-08-06T23:39:49.459Z,21.73
2018-08-06T23:42:17.349Z,21.65
2018-08-06T23:44:45.031Z,21.59
2018-08-06T23:47:12.641Z,21.55
2018-08-06T23:49:40.728Z,21.51
2018-08-06T23:52:09.140Z,21.47
2018-08-06T23:54:36.763Z,21.46
2018-08-06T23:57:05.292Z,21.44
2018-08-06T23:59:33.271Z,21.44
